Time;durP1;ratioP1;P1;durP2;ratioP2;P2;SDS_P1;SDS_P2;PMS_P1;PMS_P2;Temp;Humidity;BMP_temperature;BMP_pressure;BME280_temperature;BME280_humidity;BME280_pressure;Samples;Min_cycle;Max_cycle;Signal;HPM_P1;HPM_P2
2022/01/28 00:06:56;;;;;;;0.10;0.00;;;4.30;51.50;;;;;;20910794;28;20025;-50
2022/01/28 00:38:31;;;;;;;0.03;0.00;;;3.30;49.90;;;;;;20974902;28;20041;-50
2022/01/28 00:48:00;;;;;;;0.00;0.00;;;3.70;51.20;;;;;;20977487;28;20472;-48
2022/01/28 00:58:03;;;;;;;0.08;0.00;;;4.20;49.60;;;;;;20972685;28;20094;-49
2022/01/28 01:08:06;;;;;;;0.00;0.00;;;4.10;51.40;;;;;;20988730;28;20090;-48
2022/01/28 01:18:18;;;;;;;2.63;0.13;;;3.90;53.20;;;;;;20971473;28;20049;-49
2022/01/28 01:28:27;;;;;;;0.00;0.00;;;5.70;52.00;;;;;;20987301;28;20090;-48
2022/01/28 01:38:34;;;;;;;0.00;0.00;;;7.00;50.60;;;;;;20952817;28;20033;-51
2022/01/28 01:58:57;;;;;;;;;;;7.80;48.90;;;;;;20968963;28;20559;-49
2022/01/28 02:09:00;;;;;;;0.28;0.08;;;6.40;52.50;;;;;;20967298;28;20292;-48
2022/01/28 02:19:04;;;;;;;0.20;0.03;;;5.00;55.00;;;;;;20909205;28;20107;-50
2022/01/28 02:29:13;;;;;;;0.00;0.00;;;4.20;57.80;;;;;;20901674;28;20032;-48
2022/01/28 02:39:16;;;;;;;0.00;0.00;;;3.70;58.70;;;;;;20900098;28;20059;-49
2022/01/28 02:49:18;;;;;;;0.00;0.00;;;3.30;62.30;;;;;;20902315;28;20040;-48
2022/01/28 02:59:21;;;;;;;0.00;0.00;;;3.10;61.20;;;;;;20883228;28;20488;-49
2022/01/28 03:09:24;;;;;;;0.20;0.10;;;3.10;58.80;;;;;;20915378;28;20040;-48
2022/01/28 03:19:40;;;;;;;0.13;0.10;;;3.50;59.90;;;;;;20897912;28;20052;-49
2022/01/28 03:29:43;;;;;;;4.53;0.03;;;3.00;60.30;;;;;;20914140;28;20041;-48
2022/01/28 03:39:45;;;;;;;0.20;0.00;;;2.70;61.30;;;;;;20913275;28;20040;-48
2022/01/28 03:49:48;;;;;;;0.17;0.00;;;2.30;63.20;;;;;;20913465;28;20435;-49
2022/01/28 03:59:50;;;;;;;0.00;0.00;;;2.10;62.00;;;;;;20911909;28;20420;-49
2022/01/28 04:20:15;;;;;;;0.20;0.00;;;2.10;63.30;;;;;;20960481;28;20048;-48
2022/01/28 04:30:17;;;;;;;0.20;0.03;;;2.00;64.80;;;;;;20992184;28;20093;-54
2022/01/28 04:40:26;;;;;;;0.20;0.00;;;1.90;64.00;;;;;;20990939;28;20044;-49
2022/01/28 05:11:52;;;;;;;0.15;0.00;;;2.00;61.90;;;;;;20965878;28;20062;-49
2022/01/28 05:31:41;;;;;;;0.00;0.00;;;2.40;59.00;;;;;;20805060;28;20452;-48
2022/01/28 05:41:43;;;;;;;0.00;0.00;;;2.20;59.60;;;;;;20833831;28;20075;-48
2022/01/28 05:51:46;;;;;;;0.10;0.00;;;1.90;60.50;;;;;;20820605;28;20041;-51
2022/01/28 06:01:48;;;;;;;0.00;0.00;;;1.60;61.60;;;;;;20836439;28;20037;-50
2022/01/28 06:11:50;;;;;;;0.10;0.00;;;1.50;60.90;;;;;;20840708;28;20174;-49
2022/01/28 06:21:53;;;;;;;0.00;0.00;;;1.50;59.50;;;;;;20981773;28;20531;-47
2022/01/28 06:31:56;;;;;;;0.00;0.00;;;1.30;60.10;;;;;;20965526;28;20062;-49
2022/01/28 06:41:59;;;;;;;0.10;0.00;;;1.20;61.00;;;;;;20956601;28;20095;-48
2022/01/28 06:52:02;;;;;;;0.20;0.00;;;1.00;62.90;;;;;;20882947;28;20107;-49
2022/01/28 07:02:05;;;;;;;0.00;0.00;;;0.80;62.10;;;;;;20899312;28;20092;-48
2022/01/28 07:12:08;;;;;;;0.10;0.00;;;0.80;63.50;;;;;;20881791;28;20098;-49
2022/01/28 07:22:11;;;;;;;0.38;0.10;;;0.90;63.00;;;;;;20898789;28;20040;-50
2022/01/28 07:32:14;;;;;;;0.20;0.10;;;1.30;61.60;;;;;;20881673;28;20049;-48
2022/01/28 07:42:18;;;;;;;0.63;0.13;;;2.80;61.40;;;;;;20893121;28;20029;-49
2022/01/28 07:52:20;;;;;;;0.50;0.20;;;3.50;62.40;;;;;;20913442;28;20033;-47
2022/01/28 08:02:29;;;;;;;1.48;0.20;;;4.10;62.70;;;;;;20894566;28;20562;-48
2022/01/28 08:12:31;;;;;;;1.45;0.20;;;4.40;63.30;;;;;;20911363;28;20630;-49
2022/01/28 08:22:44;;;;;;;4.13;0.35;;;4.40;63.30;;;;;;20894588;28;20041;-48
2022/01/28 08:32:47;;;;;;;0.63;0.20;;;4.50;62.40;;;;;;20908833;28;20037;-51
2022/01/28 08:42:51;;;;;;;0.63;0.20;;;4.60;61.10;;;;;;20891637;28;20082;-48
2022/01/28 08:52:53;;;;;;;0.40;0.20;;;4.80;59.00;;;;;;20907086;28;20586;-49
2022/01/28 09:02:56;;;;;;;0.50;0.10;;;5.00;58.00;;;;;;20890214;28;20033;-49
2022/01/28 09:23:08;;;;;;;2.28;0.10;;;5.10;51.70;;;;;;20888543;28;20037;-49
2022/01/28 09:33:11;;;;;;;3.08;0.20;;;5.20;50.30;;;;;;20904056;28;20064;-52
2022/01/28 09:43:15;;;;;;;0.55;0.03;;;5.40;48.80;;;;;;20887280;28;20426;-49
2022/01/28 09:53:18;;;;;;;0.22;0.13;;;5.60;48.10;;;;;;20902937;28;20036;-48
2022/01/28 10:03:20;;;;;;;1.50;0.10;;;5.90;45.90;;;;;;20886089;28;20029;-48
2022/01/28 10:13:38;;;;;;;2.03;0.20;;;6.10;45.20;;;;;;20901219;28;20555;-50
2022/01/28 10:23:41;;;;;;;0.40;0.15;;;6.20;46.20;;;;;;20900715;28;20063;-49
2022/01/28 10:33:43;;;;;;;0.25;0.10;;;6.50;45.10;;;;;;20900041;28;20421;-51
2022/01/28 10:43:50;;;;;;;1.00;0.50;;;7.30;42.70;;;;;;20899520;28;20036;-49
2022/01/28 10:54:14;;;;;;;1.17;0.10;;;7.60;46.00;;;;;;20899590;28;20063;-50
2022/01/28 11:04:18;;;;;;;0.73;0.20;;;8.00;43.60;;;;;;20882279;28;20037;-49
2022/01/28 11:14:22;;;;;;;1.27;0.38;;;8.00;41.70;;;;;;20906764;28;20033;-49
2022/01/28 11:24:51;;;;;;;3.50;1.65;;;8.50;42.50;;;;;;20914276;28;20066;-52
2022/01/28 11:35:06;;;;;;;4.15;2.10;;;8.30;46.60;;;;;;20578831;28;20094;-53
2022/01/28 11:45:11;;;;;;;4.97;1.98;;;8.90;43.60;;;;;;20577822;28;20109;-49
2022/01/28 11:55:20;;;;;;;5.57;2.55;;;8.30;44.40;;;;;;20561594;28;20090;-49
2022/01/28 12:05:46;;;;;;;2.47;1.15;;;9.20;48.20;;;;;;20644155;28;20634;-51
2022/01/28 12:16:12;;;;;;;0.68;0.30;;;9.90;40.60;;;;;;20910341;28;20049;-49
2022/01/28 12:26:17;;;;;;;0.70;0.28;;;8.80;40.90;;;;;;20909071;28;20099;-51
2022/01/28 12:36:21;;;;;;;0.73;0.40;;;8.40;39.50;;;;;;20909254;28;20082;-50
2022/01/28 12:46:28;;;;;;;0.45;0.20;;;7.60;41.20;;;;;;20908786;28;20091;-52
2022/01/28 12:56:33;;;;;;;2.00;0.17;;;7.50;39.30;;;;;;20908286;28;20103;-49
2022/01/28 13:16:43;;;;;;;0.60;0.20;;;7.60;41.40;;;;;;20905948;28;20053;-51
2022/01/28 13:27:07;;;;;;;2.78;0.20;;;7.20;39.10;;;;;;20905386;28;20041;-50
2022/01/28 13:37:10;;;;;;;0.70;0.30;;;7.20;39.10;;;;;;20887097;28;20392;-53
2022/01/28 13:47:13;;;;;;;1.00;0.30;;;6.90;38.80;;;;;;20903361;28;20103;-50
2022/01/28 13:57:16;;;;;;;3.33;1.20;;;6.90;40.60;;;;;;20902409;28;20037;-49
2022/01/28 14:07:26;;;;;;;5.00;0.90;;;6.70;42.70;;;;;;20902147;28;20090;-53
2022/01/28 14:17:28;;;;;;;3.63;1.70;;;6.70;42.50;;;;;;20901464;28;20041;-52
2022/01/28 14:37:37;;;;;;;3.38;1.50;;;5.80;46.10;;;;;;20900236;28;20041;-50
2022/01/28 14:47:41;;;;;;;2.90;0.70;;;5.60;45.10;;;;;;20881756;28;20033;-49
2022/01/28 14:57:43;;;;;;;1.52;0.63;;;5.60;43.80;;;;;;20898900;28;20033;-48
2022/01/28 15:07:47;;;;;;;1.50;0.60;;;5.20;41.60;;;;;;20900020;28;20086;-49
2022/01/28 15:17:49;;;;;;;0.85;0.30;;;4.90;43.70;;;;;;20898434;28;20413;-49
2022/01/28 15:27:52;;;;;;;2.08;0.50;;;4.60;42.80;;;;;;20899635;28;20063;-52
2022/01/28 15:37:55;;;;;;;1.42;0.28;;;4.30;44.60;;;;;;20897988;28;20099;-48
2022/01/28 15:48:00;;;;;;;1.73;0.25;;;3.30;47.00;;;;;;20897841;28;20033;-51
2022/01/28 15:58:03;;;;;;;0.70;0.40;;;2.70;47.50;;;;;;20901653;28;20034;-49
2022/01/28 16:08:08;;;;;;;3.50;0.00;;;2.30;48.90;;;;;;20862401;28;20029;-49
2022/01/28 16:18:11;;;;;;;0.47;0.20;;;2.20;45.10;;;;;;20911061;28;20374;-54
2022/01/28 16:28:14;;;;;;;0.43;0.25;;;2.70;47.70;;;;;;20893058;28;20087;-49
2022/01/28 16:38:18;;;;;;;1.10;0.20;;;1.70;50.40;;;;;;20909001;28;20099;-49
2022/01/28 16:48:21;;;;;;;0.40;0.20;;;2.30;47.60;;;;;;20842356;28;20037;-53
2022/01/28 16:58:23;;;;;;;0.85;0.10;;;2.30;48.50;;;;;;20908807;28;20094;-48
2022/01/28 17:08:25;;;;;;;0.50;0.10;;;2.20;46.40;;;;;;20890144;28;20040;-49
2022/01/28 17:18:28;;;;;;;0.57;0.20;;;2.80;44.60;;;;;;20905794;28;20048;-48
2022/01/28 17:28:30;;;;;;;2.58;0.30;;;3.10;45.10;;;;;;20888591;28;20118;-49
2022/01/28 17:38:33;;;;;;;1.88;0.40;;;2.70;45.60;;;;;;20904466;28;20036;-48
2022/01/28 17:48:37;;;;;;;0.43;0.25;;;2.90;45.40;;;;;;20886747;28;20045;-48
2022/01/28 17:58:40;;;;;;;1.13;0.30;;;2.70;45.10;;;;;;20903175;28;20362;-51
2022/01/28 18:08:45;;;;;;;0.50;0.20;;;2.50;45.90;;;;;;20903827;28;20481;-50
2022/01/28 18:18:47;;;;;;;0.52;0.25;;;2.30;46.60;;;;;;20900563;28;20040;-48
2022/01/28 18:28:49;;;;;;;1.60;0.50;;;2.10;47.60;;;;;;20867774;28;20090;-48
2022/01/28 18:38:52;;;;;;;2.35;0.60;;;2.00;48.20;;;;;;20901452;28;20534;-49
2022/01/28 18:48:54;;;;;;;3.95;0.60;;;1.70;49.10;;;;;;20899792;28;20076;-49
2022/01/28 18:58:57;;;;;;;1.05;0.40;;;1.40;50.30;;;;;;20899557;28;20029;-50
2022/01/28 19:09:00;;;;;;;1.70;0.20;;;1.30;50.30;;;;;;20899285;28;20033;-49
2022/01/28 19:19:04;;;;;;;1.08;0.20;;;1.10;49.80;;;;;;20882485;28;20405;-49
2022/01/28 19:29:06;;;;;;;0.40;0.20;;;1.20;49.70;;;;;;20898282;28;20041;-48
2022/01/28 19:39:08;;;;;;;0.25;0.10;;;1.20;49.10;;;;;;20911148;28;20094;-48
2022/01/28 19:49:12;;;;;;;0.05;0.00;;;1.30;49.10;;;;;;20913262;28;20037;-49
2022/01/28 19:59:15;;;;;;;0.40;0.15;;;1.40;49.00;;;;;;20913868;28;20036;-50
2022/01/28 20:09:20;;;;;;;0.57;0.20;;;1.10;49.40;;;;;;20911350;28;20481;-49
2022/01/28 20:19:22;;;;;;;0.40;0.10;;;1.10;49.60;;;;;;20894610;28;20430;-49
2022/01/28 20:29:25;;;;;;;0.88;0.28;;;0.90;50.40;;;;;;20910241;28;20057;-49
2022/01/28 20:39:28;;;;;;;0.65;0.10;;;0.40;52.50;;;;;;20909529;28;20488;-48
2022/01/28 20:49:31;;;;;;;2.78;0.20;;;0.00;54.40;;;;;;20907496;28;20437;-50
2022/01/28 20:59:34;;;;;;;0.30;0.10;;;-0.80;56.60;;;;;;20891022;28;20373;-48
2022/01/28 21:09:37;;;;;;;4.72;0.20;;;-1.30;59.50;;;;;;20907744;28;20060;-51
2022/01/28 21:19:39;;;;;;;0.40;0.17;;;-1.30;58.30;;;;;;20889665;28;20049;-52
2022/01/28 21:29:42;;;;;;;0.30;0.10;;;-1.10;59.40;;;;;;20905230;28;20111;-50
2022/01/28 21:39:44;;;;;;;0.50;0.10;;;-1.10;57.90;;;;;;20887938;28;20082;-52
2022/01/28 21:49:47;;;;;;;0.30;0.10;;;-1.00;57.80;;;;;;20903861;28;20385;-48
2022/01/28 21:59:50;;;;;;;0.22;0.10;;;-0.80;57.10;;;;;;20886239;28;20110;-48
2022/01/28 22:09:52;;;;;;;0.55;0.15;;;-0.50;55.60;;;;;;20902458;28;20045;-49
2022/01/28 22:19:55;;;;;;;0.40;0.10;;;-0.30;54.60;;;;;;20901794;28;20130;-50
2022/01/28 22:29:57;;;;;;;0.75;0.20;;;0.00;54.70;;;;;;20900728;28;20063;-49
2022/01/28 22:40:00;;;;;;;0.28;0.10;;;0.10;53.80;;;;;;20900215;28;20028;-50
2022/01/28 22:50:04;;;;;;;0.13;0.05;;;0.10;53.70;;;;;;20900304;28;20102;-49
2022/01/28 23:00:18;;;;;;;0.00;0.00;;;0.20;52.60;;;;;;20900851;28;20048;-48
2022/01/28 23:10:20;;;;;;;0.10;0.00;;;0.20;52.30;;;;;;20907938;28;20033;-50
2022/01/28 23:20:23;;;;;;;0.30;0.10;;;0.40;51.70;;;;;;20831480;28;20081;-48
2022/01/28 23:30:25;;;;;;;0.50;0.10;;;0.70;51.80;;;;;;20832768;28;20420;-48
2022/01/28 23:40:28;;;;;;;0.77;0.17;;;0.90;49.10;;;;;;20816169;28;20088;-49
2022/01/28 23:50:30;;;;;;;0.40;0.10;;;0.70;50.90;;;;;;20815655;28;20037;-50
